Дата Время Давление Темп. Влажн. Скор.ветра Напр.ветра Макс.ветер Осадки/час Осадки
26.02.24 13:00 752.3 1.5 64.1 3.1 180 8.3 0 0
26.02.24 12:00 752.7 -0.3 68.7 3.7 179 8.6 0 0
26.02.24 11:00 752.7 -1 70.7 3.9 181 7.6 0 0
26.02.24 10:00 752.8 -1.4 72.2 3.5 178 8.2 0 0
26.02.24 09:00 752.8 -2 73.8 3.1 182 7.7 0 0
26.02.24 08:00 752.8 -2.2 72.1 3.6 177 7.6 0 0
26.02.24 07:00 752.8 -1.8 69.1 3.1 181 7.2 0 0
26.02.24 06:00 753 -1.6 66.9 3 180 6.8 0 0
26.02.24 05:00 753.2 -1.3 65.3 3 178 7 0 0
26.02.24 04:00 753.2 -1 65.6 3.4 176 6.4 0 0
26.02.24 03:00 753.3 -1 66.1 3.2 178 7.6 0 0
26.02.24 02:00 753.4 -0.9 66.5 3.3 180 7.7 0 0
26.02.24 01:00 753.6 -0.8 66.7 2.9 187 8 0 0
26.02.24 00:00 753.5 -0.7 66.3 3.4 183 7.9 0 2
25.02.24 23:00 753.6 -0.5 66.8 3.7 180 8.4 0 2
25.02.24 22:00 753.6 -0.4 68.7 3.5 182 7.2 0 2
25.02.24 21:00 753.6 -0.3 70.9 3 183 7.2 0 2
25.02.24 20:00 753.8 -0 67.5 3.8 177 8.1 0 2
25.02.24 19:00 753.7 0.6 64.9 3.2 186 9.2 0 2
25.02.24 18:00 753.6 1.2 66.4 4 180 8.4 0 2
25.02.24 17:00 753.5 1.1 75.1 3.7 181 7.1 0.2 2
25.02.24 16:00 753.8 1 84.7 3.2 183 6.5 0.2 1.8
25.02.24 15:00 753.9 1.4 85.2 2.6 186 7 0 1.6
25.02.24 14:00 754.2 1.1 88.8 2.4 183 7 0 1.6